Aérodrome :
LOGIN :

S'inscrire | Disclaimer

   EN    FR    IT 

 










Légende :    VFR   VFR Marginal   IFR   IFR Intensif   IFR Très Intensif
Visi : 
Plafond : 
>= 8 km
>= 3000ft
5 à 8 km
1000 à 3000 ft
1500m à 5 km
500 à 1000 ft
800 à 1500m
200 à 500 ft
< 800m
< 200 ft
Symboles :   Orages  Brouillard  Fortes neiges  Fortes précipitations  Vent > 20 kt
SIGMETs :   Divers  Orages  Givrage  Turbulence  Onde Orograph.  Cendres Volcan.







- Altitude de l'aérodrome : 17 ft
- Code IATA : MPL
- Voir les cartes d'approche


LFMT - Montpellier Méditerranée

DERNIER METAR :
  • 261200Z AUTO 34008KT 290V030 CAVOK 28/09 Q1012 NOSIG

METARs EXPIRÉS :
  • 261130Z AUTO 31011KT 270V350 CAVOK 27/10 Q1012 NOSIG
  • 261100Z AUTO 32012KT 290V010 CAVOK 28/10 Q1012 NOSIG
  • 261030Z AUTO 29014KT 270V330 9999 FEW001 27/10 Q1013 NOSIG
  • 261000Z AUTO 31015KT 280V350 CAVOK 26/11 Q1013 NOSIG
  • 260930Z AUTO 32017KT CAVOK 26/10 Q1013 NOSIG

TAF TAF LFMT
Valide du 26 à 09h jusqu'au 27 à 09h UTC


260800Z 2609/2709 32015KT CAVOK
TEMPO 2616/2620 32016G26KT
BECMG 2702/2706 VRB03KT
ATIS : +33 4 67 13 11 70
Pas de NOTAMs connus pour ce terrain.



MET'MAP, la Météo Aéronautique d'un coup d'oeil ! - Copyright ORBIFLY Décembre 2007 - Disclaimer

ORBIFLY MET'MAP TEAM :

Programmation & Développement : Alexandra Zaïnal
Conception & Développement : Baudouin d'Aumeries
Co-Programmation & Développement : Marc-Olivier Méhu
Soutien technique & logistique : Manuel Goepfert

Contact : metmap@orbifly.com




SOURCES & CREDITS :

   NOAA